Gold Bar, Washington
Current Conditions -  °F | °C
As of 5:13 PM on Saturday 20 Dec 2014 (Local Time) from KPAE Reporting Station
Haze Haze  
Wind Chill: 42°   Ceiling: 600
Heat Index: 48°   Visibility: 6mi
Dew Point: 46°   Wind: 14mph
Humidity: 93%   Direction: 170°S
Pressure: 29.43"   Gusts: NA
Location:  47.86°N, 121.7°W
Report Text: KPAE 210113Z 17012KT 6SM BR BKN006 OVC011 09/08 A2943 RMK AO2 CIG 005V009 T00890078
Loading
Personal Weather Stations






























Interactive Weather Map New forecast layout! Learn more

10-Day Weather Forecast

Advertisements
Track Severe Weather on mobile